Time;durP1;ratioP1;P1;durP2;ratioP2;P2;SDS_P1;SDS_P2;PMS_P1;PMS_P2;Temp;Humidity;BMP_temperature;BMP_pressure;BME280_temperature;BME280_humidity;BME280_pressure;Samples;Min_cycle;Max_cycle;Signal;HPM_P1;HPM_P2
2022/07/19 00:02:12;;;;;;;6.78;2.22;;;17.80;99.90;;;;;;5052084;28;20107;-79
2022/07/19 00:04:37;;;;;;;4.75;2.40;;;17.80;99.90;;;;;;5051599;28;20112;-79
2022/07/19 00:07:03;;;;;;;5.18;2.30;;;17.70;99.90;;;;;;5034113;28;20055;-79
2022/07/19 00:09:29;;;;;;;4.72;2.33;;;17.70;99.90;;;;;;5051807;28;20033;-79
2022/07/19 00:11:56;;;;;;;4.13;2.50;;;17.60;99.90;;;;;;5051670;28;20124;-79
2022/07/19 00:14:22;;;;;;;4.15;2.45;;;17.50;99.90;;;;;;5041806;28;20033;-79
2022/07/19 00:16:48;;;;;;;6.88;2.47;;;17.50;99.90;;;;;;5051202;28;20021;-80
2022/07/19 00:19:14;;;;;;;5.22;2.70;;;17.40;99.90;;;;;;5051358;28;20045;-80
2022/07/19 00:21:39;;;;;;;8.32;2.25;;;17.40;99.90;;;;;;5051064;28;20021;-79
2022/07/19 00:24:05;;;;;;;5.25;2.20;;;17.30;99.90;;;;;;5051673;28;20048;-79
2022/07/19 00:26:30;;;;;;;4.00;2.42;;;17.30;99.90;;;;;;5051594;28;20029;-79
2022/07/19 00:28:57;;;;;;;5.22;2.60;;;17.30;99.90;;;;;;5050711;28;20549;-79
2022/07/19 00:31:23;;;;;;;4.40;2.13;;;17.20;99.90;;;;;;5051361;28;20057;-79
2022/07/19 00:33:49;;;;;;;7.18;2.42;;;17.20;99.90;;;;;;5020065;28;20029;-79
2022/07/19 00:36:15;;;;;;;4.80;2.10;;;17.20;99.90;;;;;;5050741;28;20024;-79
2022/07/19 00:38:41;;;;;;;3.83;2.50;;;17.10;99.90;;;;;;5047361;28;20029;-79
2022/07/19 00:41:06;;;;;;;5.05;2.50;;;17.10;99.90;;;;;;5041121;28;20371;-79
2022/07/19 00:43:32;;;;;;;6.60;3.00;;;17.00;99.90;;;;;;5051314;28;20040;-79
2022/07/19 00:45:58;;;;;;;5.00;3.33;;;17.00;99.90;;;;;;5051117;28;20489;-79
2022/07/19 00:48:24;;;;;;;6.20;3.75;;;17.00;99.90;;;;;;5039290;28;20083;-79
2022/07/19 00:50:49;;;;;;;5.68;3.55;;;16.90;99.90;;;;;;5050483;28;20025;-79
2022/07/19 00:53:16;;;;;;;4.25;2.88;;;16.90;99.90;;;;;;5050923;28;20043;-79
2022/07/19 00:55:44;;;;;;;4.85;2.40;;;16.90;99.90;;;;;;5050830;28;20059;-79
2022/07/19 00:58:13;;;;;;;4.65;2.88;;;16.90;99.90;;;;;;5051089;28;20032;-79
2022/07/19 01:00:39;;;;;;;4.75;2.25;;;16.90;99.90;;;;;;5048346;28;20064;-77
2022/07/19 01:03:08;;;;;;;6.57;2.33;;;16.90;99.90;;;;;;5039052;28;20032;-79
2022/07/19 01:05:33;;;;;;;5.32;2.53;;;16.90;99.90;;;;;;5050890;28;20381;-79
2022/07/19 01:07:59;;;;;;;3.58;2.72;;;16.80;99.90;;;;;;5050626;28;20032;-79
2022/07/19 01:10:27;;;;;;;4.28;2.38;;;16.80;99.90;;;;;;5050651;28;20064;-79
2022/07/19 01:12:53;;;;;;;6.32;3.38;;;16.70;99.90;;;;;;5027952;28;20049;-79
2022/07/19 01:15:20;;;;;;;4.40;2.97;;;16.70;99.90;;;;;;5027018;28;20036;-79
2022/07/19 01:17:47;;;;;;;3.78;2.25;;;16.60;99.90;;;;;;5030627;28;20068;-79
2022/07/19 01:20:13;;;;;;;3.70;2.38;;;16.60;99.90;;;;;;5030894;28;20057;-79
2022/07/19 01:22:41;;;;;;;5.07;2.83;;;16.60;99.90;;;;;;5023011;28;20053;-79
2022/07/19 01:25:07;;;;;;;4.95;2.70;;;16.50;99.90;;;;;;5029070;28;20422;-79
2022/07/19 01:27:39;;;;;;;4.13;2.40;;;16.50;99.90;;;;;;5030690;28;20029;-79
2022/07/19 01:30:17;;;;;;;3.90;2.78;;;16.40;99.90;;;;;;5030543;28;20027;-79
2022/07/19 01:32:43;;;;;;;5.32;2.53;;;16.40;99.90;;;;;;5030821;28;20156;-79
2022/07/19 01:35:09;;;;;;;3.53;2.33;;;16.40;99.90;;;;;;5020776;28;20116;-79
2022/07/19 01:37:35;;;;;;;4.65;2.70;;;16.40;99.90;;;;;;5030594;28;20048;-79
2022/07/19 01:40:03;;;;;;;6.53;2.80;;;16.30;99.90;;;;;;5030428;28;20029;-79
2022/07/19 01:42:28;;;;;;;4.35;2.50;;;16.30;99.90;;;;;;5029352;28;20053;-79
2022/07/19 01:44:54;;;;;;;4.13;2.70;;;16.20;99.90;;;;;;5029928;28;20154;-79
2022/07/19 01:47:19;;;;;;;3.90;2.33;;;16.20;99.90;;;;;;5030746;28;20105;-79
2022/07/19 01:49:45;;;;;;;4.80;2.47;;;16.20;99.90;;;;;;5030346;28;20419;-79
2022/07/19 01:52:10;;;;;;;4.30;2.60;;;16.20;99.90;;;;;;5030978;28;20524;-79
2022/07/19 01:54:36;;;;;;;5.85;2.60;;;16.10;99.90;;;;;;5027635;28;20044;-79
2022/07/19 01:57:02;;;;;;;5.00;2.67;;;16.10;99.90;;;;;;5030409;28;20354;-79
2022/07/19 01:59:27;;;;;;;3.85;2.35;;;16.10;99.90;;;;;;5030147;28;20388;-79
2022/07/19 02:01:53;;;;;;;5.35;2.60;;;16.10;99.90;;;;;;5029948;28;20025;-79
2022/07/19 02:04:18;;;;;;;7.25;3.30;;;16.00;99.90;;;;;;5027484;28;20029;-79
2022/07/19 02:06:44;;;;;;;5.32;2.63;;;16.00;99.90;;;;;;5030336;28;20425;-79
2022/07/19 02:09:09;;;;;;;3.65;2.40;;;15.90;99.90;;;;;;5028883;28;20433;-79
2022/07/19 02:11:35;;;;;;;5.30;2.95;;;15.90;99.90;;;;;;5037143;28;20124;-79
2022/07/19 02:14:02;;;;;;;4.38;2.83;;;15.80;99.90;;;;;;5044325;28;20029;-79
2022/07/19 02:16:27;;;;;;;7.97;3.22;;;15.80;99.90;;;;;;5050255;28;20045;-79
2022/07/19 02:18:53;;;;;;;3.83;2.50;;;15.80;99.90;;;;;;5050072;28;20056;-79
2022/07/19 02:21:19;;;;;;;3.58;2.60;;;15.70;99.90;;;;;;5049900;28;20404;-79
2022/07/19 02:23:44;;;;;;;5.32;2.65;;;15.60;99.90;;;;;;5044767;28;20029;-79
2022/07/19 02:26:10;;;;;;;4.50;2.92;;;15.50;99.90;;;;;;5049021;28;20029;-79
2022/07/19 02:28:36;;;;;;;4.70;2.50;;;15.50;99.90;;;;;;5049849;28;20111;-79
2022/07/19 02:31:01;;;;;;;5.25;2.70;;;15.40;99.90;;;;;;5049907;28;20021;-79
2022/07/19 02:33:27;;;;;;;6.97;3.15;;;15.40;99.90;;;;;;5029459;28;20162;-79
2022/07/19 02:35:52;;;;;;;4.93;2.53;;;15.40;99.90;;;;;;5041068;28;20444;-79
2022/07/19 02:38:18;;;;;;;4.25;2.60;;;15.30;99.90;;;;;;5049660;28;20044;-79
2022/07/19 02:40:43;;;;;;;5.72;2.80;;;15.30;99.90;;;;;;5049764;28;20025;-79
2022/07/19 02:43:09;;;;;;;6.28;3.20;;;15.30;99.90;;;;;;5049604;28;20075;-79
2022/07/19 02:45:34;;;;;;;4.85;3.05;;;15.20;99.90;;;;;;5019375;28;20036;-79
2022/07/19 02:48:02;;;;;;;8.15;2.88;;;15.20;99.90;;;;;;5049724;28;20052;-79
2022/07/19 02:50:28;;;;;;;7.22;2.97;;;15.20;99.90;;;;;;5049456;28;20633;-79
2022/07/19 02:52:53;;;;;;;4.78;2.92;;;15.10;99.90;;;;;;5049200;28;20033;-79
2022/07/19 02:55:19;;;;;;;5.30;2.90;;;15.10;99.90;;;;;;5047238;28;20035;-79
2022/07/19 02:57:44;;;;;;;5.85;3.05;;;15.10;99.90;;;;;;5049779;28;20120;-79
2022/07/19 03:00:10;;;;;;;6.13;3.25;;;15.10;99.90;;;;;;5052289;28;20079;-79
2022/07/19 03:02:36;;;;;;;5.70;3.00;;;15.00;99.90;;;;;;5053270;28;20095;-79
2022/07/19 03:05:02;;;;;;;5.80;3.38;;;15.00;99.90;;;;;;5049920;28;20029;-79
2022/07/19 03:07:28;;;;;;;9.77;3.15;;;15.00;99.90;;;;;;5052875;28;20040;-79
2022/07/19 03:09:53;;;;;;;7.97;3.30;;;15.00;99.90;;;;;;5044917;28;20036;-79
2022/07/19 03:12:19;;;;;;;4.80;3.03;;;15.00;99.90;;;;;;5052483;28;20037;-79
2022/07/19 03:14:44;;;;;;;4.30;2.65;;;15.00;99.90;;;;;;5047503;28;20116;-79
2022/07/19 03:17:10;;;;;;;5.18;2.78;;;14.90;99.90;;;;;;5052669;28;20032;-79
2022/07/19 03:19:35;;;;;;;9.00;3.20;;;14.90;99.90;;;;;;5052735;28;20041;-79
2022/07/19 03:22:01;;;;;;;8.18;2.90;;;14.90;99.90;;;;;;5052924;28;20095;-79
2022/07/19 03:24:26;;;;;;;6.63;3.47;;;14.90;99.90;;;;;;5046698;28;20029;-79
2022/07/19 03:26:52;;;;;;;7.45;3.45;;;14.90;99.90;;;;;;5052902;28;20040;-79
2022/07/19 03:29:18;;;;;;;10.32;3.30;;;14.90;99.90;;;;;;5034569;28;20029;-79
2022/07/19 03:31:43;;;;;;;9.23;3.40;;;14.80;99.90;;;;;;5052504;28;20458;-79
2022/07/19 03:34:09;;;;;;;11.95;4.07;;;14.80;99.90;;;;;;5045037;28;20021;-79
2022/07/19 03:36:34;;;;;;;11.23;4.05;;;14.80;99.90;;;;;;5049402;28;20075;-77
2022/07/19 03:39:00;;;;;;;9.27;3.30;;;14.80;99.90;;;;;;5052523;28;20033;-78
2022/07/19 03:41:25;;;;;;;8.20;3.50;;;14.70;99.90;;;;;;5052426;28;20036;-78
2022/07/19 03:43:51;;;;;;;10.45;4.03;;;14.70;99.90;;;;;;5049942;28;20029;-78
2022/07/19 03:46:19;;;;;;;11.95;3.78;;;14.70;99.90;;;;;;5051845;28;20071;-78
2022/07/19 03:48:44;;;;;;;15.82;3.88;;;14.70;99.90;;;;;;5051883;28;20044;-78
2022/07/19 03:51:11;;;;;;;10.30;3.38;;;14.70;99.90;;;;;;5051941;28;20022;-77
2022/07/19 03:53:36;;;;;;;9.82;3.85;;;14.70;99.90;;;;;;5051198;28;20466;-77
2022/07/19 03:56:02;;;;;;;11.55;3.70;;;14.70;99.90;;;;;;5052126;28;20060;-77
2022/07/19 03:58:28;;;;;;;10.48;4.05;;;14.70;99.90;;;;;;5051986;28;20033;-77
2022/07/19 04:00:54;;;;;;;6.47;3.40;;;14.70;99.90;;;;;;5051931;28;20032;-77
2022/07/19 04:03:19;;;;;;;13.85;3.58;;;14.70;99.90;;;;;;5051587;28;20029;-78
2022/07/19 04:05:45;;;;;;;10.45;3.55;;;14.70;99.90;;;;;;5049014;28;20025;-78
2022/07/19 04:08:10;;;;;;;8.40;3.40;;;14.70;99.90;;;;;;5051761;28;20021;-78
2022/07/19 04:10:36;;;;;;;7.95;3.25;;;14.70;99.90;;;;;;5048068;28;20494;-78
2022/07/19 04:13:02;;;;;;;5.95;3.38;;;14.70;99.90;;;;;;5049169;28;20051;-78
2022/07/19 04:15:27;;;;;;;10.25;4.03;;;14.70;99.90;;;;;;5048401;28;20466;-78
2022/07/19 04:17:53;;;;;;;14.52;3.97;;;14.60;99.90;;;;;;5051807;28;20031;-78
2022/07/19 04:20:18;;;;;;;10.98;3.72;;;14.60;99.90;;;;;;5051654;28;20362;-78
2022/07/19 04:22:44;;;;;;;9.95;3.60;;;14.60;99.90;;;;;;5047020;28;20406;-69
2022/07/19 04:25:13;;;;;;;6.90;3.30;;;14.60;99.90;;;;;;5052237;28;20094;-67
2022/07/19 04:27:38;;;;;;;5.93;3.63;;;14.60;99.90;;;;;;5054018;28;20029;-67
2022/07/19 04:30:05;;;;;;;6.03;3.40;;;14.60;99.90;;;;;;5051700;28;20099;-67
2022/07/19 04:32:31;;;;;;;6.90;3.42;;;14.70;99.90;;;;;;5051233;28;20108;-67
2022/07/19 04:34:57;;;;;;;7.13;3.40;;;14.70;99.90;;;;;;5051647;28;20024;-67
2022/07/19 04:37:23;;;;;;;7.97;3.33;;;14.80;99.90;;;;;;5046356;28;20544;-66
2022/07/19 04:39:48;;;;;;;7.53;3.80;;;14.80;99.90;;;;;;5048885;28;20112;-66
2022/07/19 04:42:14;;;;;;;11.38;3.63;;;14.90;99.90;;;;;;5048854;28;20397;-66
2022/07/19 04:44:39;;;;;;;8.32;4.03;;;15.00;99.90;;;;;;5050871;28;20113;-66
2022/07/19 04:47:05;;;;;;;6.50;3.80;;;15.00;99.90;;;;;;5049055;28;20032;-66
2022/07/19 04:49:31;;;;;;;7.20;3.47;;;15.10;99.90;;;;;;5049254;28;20442;-67
2022/07/19 04:51:56;;;;;;;7.47;3.55;;;15.20;99.90;;;;;;5050543;28;20025;-66
2022/07/19 04:54:22;;;;;;;9.73;4.07;;;15.30;99.90;;;;;;5049402;28;20533;-66
2022/07/19 04:56:47;;;;;;;8.52;3.47;;;15.30;99.90;;;;;;5052728;28;20029;-66
2022/07/19 04:59:13;;;;;;;9.93;4.03;;;15.50;99.90;;;;;;5053957;28;20120;-66
2022/07/19 05:01:39;;;;;;;7.97;3.75;;;15.50;99.90;;;;;;5051877;28;20351;-66
2022/07/19 05:04:04;;;;;;;12.13;3.88;;;15.60;99.90;;;;;;5051177;28;20141;-66
2022/07/19 05:06:30;;;;;;;12.48;4.22;;;15.70;99.90;;;;;;5049230;28;20028;-67
2022/07/19 05:08:56;;;;;;;11.30;4.03;;;15.70;99.90;;;;;;5050892;28;20036;-67
2022/07/19 05:11:22;;;;;;;12.88;4.03;;;15.80;99.90;;;;;;5051122;28;20086;-66
2022/07/19 05:13:48;;;;;;;12.32;4.65;;;16.00;99.90;;;;;;5045195;28;20021;-67
2022/07/19 05:16:14;;;;;;;7.00;4.20;;;16.10;99.90;;;;;;5050980;28;20041;-67
2022/07/19 05:18:39;;;;;;;9.32;5.28;;;16.20;99.90;;;;;;5048571;28;20112;-67
2022/07/19 05:21:05;;;;;;;9.75;5.20;;;16.30;99.90;;;;;;5047129;28;20044;-69
2022/07/19 05:23:31;;;;;;;11.30;5.57;;;16.50;99.90;;;;;;5047482;28;20021;-69
2022/07/19 05:25:57;;;;;;;13.60;6.25;;;16.60;99.90;;;;;;5047664;28;20013;-70
2022/07/19 05:28:23;;;;;;;15.05;6.25;;;16.70;99.90;;;;;;5050913;28;20051;-66
2022/07/19 05:30:48;;;;;;;15.55;6.40;;;16.80;99.90;;;;;;5056677;28;20559;-67
2022/07/19 05:33:16;;;;;;;21.15;6.82;;;17.00;99.90;;;;;;5052679;28;20090;-67
2022/07/19 05:35:42;;;;;;;21.42;7.10;;;17.10;99.90;;;;;;5048461;28;20025;-66
2022/07/19 05:38:07;;;;;;;14.10;6.55;;;17.20;99.90;;;;;;5055389;28;20040;-66
2022/07/19 05:40:33;;;;;;;25.80;6.30;;;17.30;99.90;;;;;;5053567;28;20029;-74
2022/07/19 05:42:59;;;;;;;13.43;5.63;;;17.50;99.90;;;;;;5055627;28;20021;-67
2022/07/19 05:45:26;;;;;;;12.90;5.65;;;17.70;99.90;;;;;;5050086;28;20117;-67
2022/07/19 05:47:52;;;;;;;20.90;6.30;;;17.80;99.90;;;;;;5043818;28;20017;-67
2022/07/19 05:50:17;;;;;;;18.80;5.72;;;18.00;99.90;;;;;;5039345;28;20036;-68
2022/07/19 05:52:43;;;;;;;15.60;5.57;;;18.10;99.90;;;;;;5039973;28;20075;-67
2022/07/19 05:55:09;;;;;;;12.77;5.03;;;18.30;99.90;;;;;;5041129;28;20444;-67
2022/07/19 05:57:34;;;;;;;14.07;4.82;;;18.50;99.90;;;;;;5043202;28;20021;-67
2022/07/19 06:00:00;;;;;;;11.82;4.53;;;18.60;99.90;;;;;;5039905;28;20315;-67
2022/07/19 06:02:25;;;;;;;16.17;5.03;;;18.80;99.90;;;;;;5041220;28;20021;-67
2022/07/19 06:04:51;;;;;;;13.02;4.50;;;19.00;99.90;;;;;;5037121;28;20048;-67
2022/07/19 06:07:16;;;;;;;15.52;4.65;;;19.20;99.90;;;;;;5042864;28;20035;-67
2022/07/19 06:09:43;;;;;;;10.70;4.15;;;19.30;99.90;;;;;;5038704;28;20698;-67
2022/07/19 06:12:09;;;;;;;13.65;4.25;;;19.50;99.90;;;;;;5040891;28;20109;-67
2022/07/19 06:14:34;;;;;;;10.88;3.70;;;19.80;99.90;;;;;;5047898;28;20389;-68
2022/07/19 06:17:00;;;;;;;13.45;3.75;;;19.90;99.90;;;;;;5044365;28;20049;-68
2022/07/19 06:19:26;;;;;;;14.90;4.28;;;20.10;99.90;;;;;;5044355;28;20354;-68
2022/07/19 06:21:52;;;;;;;11.20;4.07;;;20.30;99.90;;;;;;5041116;28;20025;-67
2022/07/19 06:24:18;;;;;;;14.25;3.83;;;20.50;99.90;;;;;;5047334;28;20032;-67
2022/07/19 06:26:44;;;;;;;11.40;3.30;;;20.70;99.90;;;;;;5041069;28;20025;-67
2022/07/19 06:29:09;;;;;;;10.35;3.40;;;20.90;99.90;;;;;;5044204;28;20381;-67
2022/07/19 06:31:35;;;;;;;13.98;3.40;;;21.10;99.90;;;;;;5039554;28;20068;-67
2022/07/19 06:34:00;;;;;;;18.50;3.90;;;21.30;99.90;;;;;;5041644;28;20017;-68
2022/07/19 06:36:27;;;;;;;10.77;3.05;;;21.40;99.90;;;;;;5053664;28;20021;-67
2022/07/19 06:38:52;;;;;;;10.35;3.05;;;21.60;99.90;;;;;;5050349;28;20033;-67
2022/07/19 06:41:18;;;;;;;3.17;2.45;;;21.80;99.90;;;;;;5051169;28;20044;-68
2022/07/19 06:43:44;;;;;;;7.72;2.30;;;22.00;99.90;;;;;;5054605;28;20393;-68
2022/07/19 06:46:10;;;;;;;13.23;2.83;;;22.20;99.90;;;;;;5052180;28;20457;-68
2022/07/19 06:48:36;;;;;;;9.52;2.92;;;22.30;99.90;;;;;;5047282;28;20037;-68
2022/07/19 06:51:02;;;;;;;7.22;2.20;;;22.50;99.90;;;;;;5054900;28;20028;-68
2022/07/19 06:53:28;;;;;;;8.48;2.13;;;22.60;99.90;;;;;;5052757;28;20056;-67
2022/07/19 06:55:53;;;;;;;9.88;2.40;;;22.80;99.90;;;;;;5046557;28;20032;-67
2022/07/19 06:58:19;;;;;;;8.95;2.40;;;23.00;99.90;;;;;;5046475;28;20057;-68
2022/07/19 07:00:45;;;;;;;6.53;2.20;;;23.10;99.90;;;;;;5048800;28;20056;-68
2022/07/19 07:03:11;;;;;;;5.53;2.10;;;23.20;99.90;;;;;;5046506;28;20035;-67
2022/07/19 07:05:37;;;;;;;5.85;2.10;;;23.30;99.90;;;;;;5054783;28;20029;-68
2022/07/19 07:08:02;;;;;;;5.63;2.25;;;23.40;99.90;;;;;;5054585;28;20354;-67
2022/07/19 07:10:28;;;;;;;6.35;2.35;;;23.60;99.90;;;;;;5054252;28;20029;-68
2022/07/19 07:12:54;;;;;;;7.32;2.70;;;23.70;99.90;;;;;;5053184;28;20037;-68
2022/07/19 07:15:19;;;;;;;8.57;2.17;;;23.80;99.90;;;;;;5051729;28;20103;-68
2022/07/19 07:17:45;;;;;;;7.10;2.58;;;23.90;99.90;;;;;;5054277;28;20021;-68
2022/07/19 07:20:11;;;;;;;5.90;2.05;;;24.00;99.90;;;;;;5054377;28;20032;-68
2022/07/19 07:22:37;;;;;;;6.95;2.05;;;24.10;99.90;;;;;;5052540;28;20025;-68
2022/07/19 07:25:04;;;;;;;5.43;2.30;;;24.10;99.90;;;;;;5053577;28;20033;-68
2022/07/19 07:27:29;;;;;;;9.50;2.35;;;24.20;99.90;;;;;;5053666;28;20032;-68
2022/07/19 07:29:55;;;;;;;5.95;1.80;;;24.20;99.90;;;;;;5036007;28;20021;-68
2022/07/19 07:32:21;;;;;;;6.07;2.08;;;24.20;99.90;;;;;;5053550;28;20079;-67
2022/07/19 07:34:46;;;;;;;9.60;2.45;;;24.40;99.90;;;;;;5053691;28;20480;-68
2022/07/19 07:37:12;;;;;;;7.30;2.08;;;24.40;99.90;;;;;;5053630;28;20104;-68
2022/07/19 07:39:38;;;;;;;10.25;2.20;;;24.50;99.90;;;;;;5053570;28;20359;-69
2022/07/19 07:42:05;;;;;;;10.80;2.35;;;24.60;99.90;;;;;;5044077;28;20040;-68
2022/07/19 07:44:31;;;;;;;8.15;3.00;;;24.70;99.90;;;;;;5033102;28;20030;-68
2022/07/19 07:46:56;;;;;;;6.85;2.33;;;24.70;99.90;;;;;;5033707;28;20454;-68
2022/07/19 07:49:22;;;;;;;6.85;2.22;;;24.90;99.90;;;;;;5047590;28;20132;-68
2022/07/19 07:51:48;;;;;;;4.85;1.80;;;25.00;99.90;;;;;;5053274;28;20053;-68
2022/07/19 07:54:14;;;;;;;5.78;2.03;;;25.00;99.90;;;;;;5053112;28;20044;-68
2022/07/19 07:56:39;;;;;;;6.60;2.22;;;25.10;99.90;;;;;;5052990;28;20040;-67
2022/07/19 07:59:05;;;;;;;7.10;2.40;;;25.20;99.90;;;;;;5053305;28;20029;-68
2022/07/19 08:01:31;;;;;;;6.35;1.90;;;25.30;99.90;;;;;;5053468;28;20105;-67
2022/07/19 08:03:57;;;;;;;8.07;1.85;;;25.40;99.90;;;;;;5054486;28;20025;-65
2022/07/19 08:06:23;;;;;;;4.35;1.90;;;25.50;99.90;;;;;;5053511;28;20036;-64
2022/07/19 08:08:48;;;;;;;7.60;1.67;;;25.60;99.60;;;;;;5057318;28;20400;-67
2022/07/19 08:11:14;;;;;;;4.38;1.80;;;25.70;99.80;;;;;;5052161;28;20197;-66
2022/07/19 08:13:39;;;;;;;5.75;1.98;;;25.70;98.60;;;;;;5049818;28;20040;-68
2022/07/19 08:16:06;;;;;;;6.70;2.03;;;25.80;98.80;;;;;;5051892;28;20033;-68
2022/07/19 08:18:32;;;;;;;7.18;1.85;;;25.90;99.10;;;;;;5052490;28;20481;-67
2022/07/19 08:20:57;;;;;;;5.38;2.08;;;26.00;97.20;;;;;;5034508;28;20425;-67
2022/07/19 08:23:23;;;;;;;9.10;1.70;;;26.10;96.80;;;;;;5042251;28;20035;-67
2022/07/19 08:25:48;;;;;;;5.13;2.00;;;26.10;97.30;;;;;;5046820;28;20029;-67
2022/07/19 08:28:14;;;;;;;8.00;2.28;;;26.20;97.20;;;;;;5048050;28;20421;-68
2022/07/19 08:30:40;;;;;;;6.47;1.95;;;26.20;94.80;;;;;;5052442;28;20082;-76
2022/07/19 08:33:08;;;;;;;5.32;1.63;;;26.30;94.70;;;;;;5052760;28;20029;-76
2022/07/19 08:35:34;;;;;;;5.63;1.95;;;26.40;95.00;;;;;;5053148;28;20153;-76
2022/07/19 08:38:00;;;;;;;9.48;2.30;;;26.50;94.90;;;;;;5051963;28;20071;-76
2022/07/19 08:40:25;;;;;;;15.30;2.30;;;26.50;94.30;;;;;;5039176;28;20054;-76
2022/07/19 08:42:53;;;;;;;8.13;1.98;;;26.60;93.90;;;;;;5052564;28;20031;-76
2022/07/19 08:45:22;;;;;;;4.15;1.98;;;26.60;93.90;;;;;;5033322;28;20032;-76
2022/07/19 08:47:48;;;;;;;7.30;1.92;;;26.70;94.00;;;;;;5043305;28;20481;-77
2022/07/19 08:50:14;;;;;;;4.30;1.73;;;26.70;95.20;;;;;;5048612;28;20040;-76
2022/07/19 08:52:40;;;;;;;13.50;2.05;;;26.90;93.40;;;;;;5023667;28;20386;-76
2022/07/19 08:55:06;;;;;;;4.20;2.10;;;27.00;93.00;;;;;;5052397;28;20021;-77
2022/07/19 09:00:16;;;;;;;5.05;2.00;;;27.20;92.90;;;;;;5052054;28;20035;-76
2022/07/19 09:02:57;;;;;;;4.57;1.90;;;27.20;92.50;;;;;;5034416;28;20021;-76
2022/07/19 09:05:23;;;;;;;4.95;1.58;;;27.20;91.90;;;;;;5051661;28;20033;-76
2022/07/19 09:08:11;;;;;;;3.85;1.90;;;27.30;93.00;;;;;;5051846;28;20094;-76
2022/07/19 09:10:43;;;;;;;5.57;1.80;;;27.50;91.80;;;;;;5051965;28;20031;-76
2022/07/19 09:13:13;;;;;;;11.32;2.13;;;27.50;90.60;;;;;;5051662;28;20029;-76
2022/07/19 09:15:59;;;;;;;7.15;1.85;;;27.60;91.10;;;;;;5034730;28;20024;-76
2022/07/19 09:18:33;;;;;;;5.07;1.75;;;27.70;90.40;;;;;;5040155;28;20033;-76
2022/07/19 09:21:02;;;;;;;4.45;1.80;;;27.80;89.20;;;;;;5050602;28;20047;-76
2022/07/19 09:23:28;;;;;;;6.57;2.20;;;27.80;86.80;;;;;;5051946;28;20071;-76
2022/07/19 09:25:56;;;;;;;5.45;1.80;;;28.00;84.80;;;;;;5051988;28;20057;-76
2022/07/19 09:28:23;;;;;;;5.05;1.70;;;28.10;85.20;;;;;;5046401;28;20029;-76
2022/07/19 09:30:53;;;;;;;7.72;1.80;;;28.20;86.70;;;;;;5031716;28;20029;-76
2022/07/19 09:33:23;;;;;;;5.03;1.48;;;28.40;84.00;;;;;;5049934;28;20013;-76
2022/07/19 09:35:52;;;;;;;8.10;2.00;;;28.60;84.70;;;;;;5041023;28;20096;-77
2022/07/19 09:38:23;;;;;;;5.40;1.90;;;28.80;84.60;;;;;;5048781;28;20519;-76
2022/07/19 09:40:52;;;;;;;4.07;2.28;;;29.00;83.00;;;;;;5033719;28;20033;-76
2022/07/19 09:43:22;;;;;;;9.02;1.55;;;29.20;77.20;;;;;;5035166;28;20037;-76
2022/07/19 09:45:48;;;;;;;4.70;1.70;;;29.30;77.80;;;;;;5031874;28;20041;-76
2022/07/19 09:48:13;;;;;;;8.88;1.50;;;29.50;74.50;;;;;;5045391;28;20057;-76
2022/07/19 09:50:39;;;;;;;4.72;1.77;;;29.50;74.20;;;;;;5033541;28;20029;-76
2022/07/19 09:53:06;;;;;;;5.38;1.80;;;29.60;73.00;;;;;;5034297;28;20393;-76
2022/07/19 09:55:31;;;;;;;3.72;1.40;;;29.90;75.30;;;;;;5037354;28;20021;-76
2022/07/19 09:57:58;;;;;;;4.85;1.63;;;30.20;71.60;;;;;;5042105;28;20051;-75
2022/07/19 10:00:25;;;;;;;6.13;1.50;;;30.40;70.70;;;;;;5047772;28;20020;-75
2022/07/19 10:02:59;;;;;;;7.07;2.63;;;30.40;70.20;;;;;;5050481;28;20032;-75
2022/07/19 10:05:26;;;;;;;4.82;1.50;;;30.60;70.30;;;;;;5047511;28;20017;-75
2022/07/19 10:07:51;;;;;;;8.88;1.70;;;30.80;71.30;;;;;;5051041;28;20531;-75
2022/07/19 10:10:20;;;;;;;3.83;1.50;;;31.00;67.50;;;;;;5053732;28;20109;-75
2022/07/19 10:12:47;;;;;;;5.22;1.92;;;31.10;66.60;;;;;;5051879;28;20044;-75
2022/07/19 10:15:16;;;;;;;7.40;1.90;;;31.30;66.00;;;;;;5051160;28;20016;-75
2022/07/19 10:17:45;;;;;;;6.80;1.70;;;31.40;64.80;;;;;;5036086;28;20138;-75
2022/07/19 10:20:15;;;;;;;4.18;1.45;;;31.50;65.80;;;;;;5054075;28;20056;-75
2022/07/19 10:22:40;;;;;;;5.65;1.70;;;31.60;64.90;;;;;;5054179;28;20096;-75
2022/07/19 10:25:14;;;;;;;5.05;1.60;;;31.70;63.10;;;;;;5053929;28;20056;-75
2022/07/19 10:27:43;;;;;;;7.90;1.90;;;31.90;63.40;;;;;;5054598;28;20567;-76
2022/07/19 10:30:11;;;;;;;4.60;1.60;;;32.00;60.90;;;;;;5055205;28;20029;-77
2022/07/19 10:32:45;;;;;;;17.75;1.98;;;32.20;63.90;;;;;;5055474;28;20021;-77
2022/07/19 10:35:26;;;;;;;3.38;1.70;;;32.20;65.20;;;;;;5055358;28;20016;-76
2022/07/19 10:37:51;;;;;;;4.00;1.65;;;32.50;63.80;;;;;;5037441;28;20083;-77
2022/07/19 10:40:43;;;;;;;9.48;1.88;;;32.50;63.50;;;;;;5055245;28;20401;-76
2022/07/19 10:43:09;;;;;;;4.38;1.60;;;32.80;64.70;;;;;;5055136;28;20025;-76
2022/07/19 10:45:35;;;;;;;4.10;1.50;;;32.80;62.00;;;;;;5055221;28;20029;-76
2022/07/19 10:48:07;;;;;;;4.55;1.50;;;32.70;61.50;;;;;;5054574;28;20085;-77
2022/07/19 10:50:46;;;;;;;6.13;2.05;;;32.80;60.10;;;;;;5054776;28;20085;-77
2022/07/19 10:53:40;;;;;;;8.30;1.73;;;32.90;63.60;;;;;;5050720;28;20028;-77
2022/07/19 10:56:15;;;;;;;;;;;33.00;60.10;;;;;;5049948;28;20024;-77
2022/07/19 10:58:54;;;;;;;6.95;1.80;;;33.00;61.10;;;;;;5053455;28;19950;-77
2022/07/19 11:01:21;;;;;;;5.68;1.77;;;33.20;59.50;;;;;;5029832;28;20056;-75
2022/07/19 11:03:49;;;;;;;5.55;1.92;;;33.20;59.50;;;;;;5046792;28;20005;-75
2022/07/19 11:06:26;;;;;;;6.13;2.40;;;33.20;58.80;;;;;;5047010;28;20526;-75
2022/07/19 11:08:57;;;;;;;6.55;2.25;;;33.20;59.40;;;;;;5027170;28;20108;-75
2022/07/19 11:11:26;;;;;;;4.18;1.80;;;33.30;58.50;;;;;;5045290;28;20045;-76
2022/07/19 11:13:54;;;;;;;8.00;1.90;;;33.10;58.40;;;;;;5042304;28;20025;-75
2022/07/19 11:16:21;;;;;;;7.20;1.77;;;33.00;59.80;;;;;;5044209;28;20097;-75
2022/07/19 11:18:47;;;;;;;4.43;2.10;;;33.10;60.50;;;;;;5043334;28;20113;-76
2022/07/19 11:21:14;;;;;;;5.25;2.05;;;33.30;60.40;;;;;;5040196;28;20025;-75
2022/07/19 11:23:42;;;;;;;6.93;1.90;;;33.50;58.20;;;;;;5042083;28;20335;-75
2022/07/19 11:26:15;;;;;;;8.38;2.15;;;33.70;58.80;;;;;;5047897;28;20074;-75
2022/07/19 11:28:42;;;;;;;7.75;1.88;;;33.90;57.80;;;;;;5045535;28;20026;-76
2022/07/19 11:31:24;;;;;;;3.40;1.80;;;33.90;57.80;;;;;;5047269;28;20029;-75
2022/07/19 11:33:57;;;;;;;5.97;2.10;;;34.10;57.00;;;;;;5046335;28;20041;-75
2022/07/19 11:36:24;;;;;;;4.32;2.08;;;34.10;57.00;;;;;;5045017;28;20054;-75
2022/07/19 11:39:00;;;;;;;4.35;2.10;;;34.10;55.70;;;;;;5041453;28;20025;-75
2022/07/19 11:41:28;;;;;;;4.65;2.03;;;34.00;55.10;;;;;;5026118;28;20040;-75
2022/07/19 11:44:03;;;;;;;5.07;2.28;;;33.90;55.50;;;;;;5043400;28;20028;-75
2022/07/19 11:46:38;;;;;;;6.78;1.90;;;33.80;58.20;;;;;;5041421;28;20446;-75
2022/07/19 11:49:06;;;;;;;7.65;2.00;;;34.00;57.30;;;;;;5046366;28;20035;-75
2022/07/19 11:51:33;;;;;;;4.88;1.88;;;34.20;58.60;;;;;;5042008;28;20600;-76
2022/07/19 11:54:01;;;;;;;5.70;2.10;;;34.20;56.70;;;;;;5042506;28;20374;-75
2022/07/19 11:56:29;;;;;;;5.78;2.30;;;34.40;57.90;;;;;;5038326;28;20364;-75
2022/07/19 11:58:57;;;;;;;4.90;2.20;;;34.70;57.30;;;;;;5039022;28;20017;-75
2022/07/19 12:01:31;;;;;;;4.18;1.80;;;34.90;56.10;;;;;;5038831;28;20392;-76
2022/07/19 12:04:17;;;;;;;6.38;1.90;;;34.90;56.60;;;;;;5043329;28;20017;-75
2022/07/19 12:06:45;;;;;;;7.75;2.58;;;34.90;55.50;;;;;;5040573;28;20458;-75
2022/07/19 12:09:12;;;;;;;5.47;1.90;;;35.00;54.90;;;;;;5043499;28;20055;-75
2022/07/19 12:11:46;;;;;;;7.03;2.10;;;34.90;55.70;;;;;;5045754;28;20041;-75
2022/07/19 12:14:28;;;;;;;6.00;2.40;;;34.90;55.10;;;;;;5037704;28;20135;-76
2022/07/19 12:17:15;;;;;;;4.57;2.42;;;35.00;55.90;;;;;;5042331;28;20434;-76
2022/07/19 12:19:49;;;;;;;5.60;2.60;;;35.10;54.30;;;;;;5040948;28;20033;-75
2022/07/19 12:22:33;;;;;;;5.40;2.20;;;35.00;55.10;;;;;;5039291;28;20355;-76
2022/07/19 12:24:58;;;;;;;5.05;2.20;;;35.00;55.90;;;;;;5044680;28;20025;-75
2022/07/19 12:27:27;;;;;;;8.98;2.65;;;35.30;55.50;;;;;;5051388;28;20379;-75
2022/07/19 12:29:55;;;;;;;6.65;2.40;;;35.50;55.00;;;;;;5051122;28;20166;-75
2022/07/19 12:32:30;;;;;;;4.43;2.35;;;35.50;54.70;;;;;;5050432;28;20020;-76
2022/07/19 12:35:00;;;;;;;5.72;2.70;;;35.70;54.90;;;;;;5037341;28;20013;-75
2022/07/19 12:37:31;;;;;;;11.48;2.78;;;35.70;54.80;;;;;;5051683;28;20025;-76
2022/07/19 12:40:06;;;;;;;5.97;2.78;;;35.90;55.00;;;;;;5048591;28;20021;-76
2022/07/19 12:42:50;;;;;;;6.13;2.70;;;35.70;54.00;;;;;;5023518;28;20082;-76
2022/07/19 12:45:22;;;;;;;5.38;2.70;;;35.70;54.10;;;;;;5051393;28;20067;-76
2022/07/19 12:47:50;;;;;;;5.55;2.40;;;35.60;53.80;;;;;;5050744;28;20104;-76
2022/07/19 12:50:29;;;;;;;6.63;2.45;;;35.50;53.40;;;;;;5050386;28;20036;-76